createdAt,value
2022-12-04T00:00:22.249Z,75.90
2022-12-04T00:03:17.890Z,72.60
2022-12-04T00:06:07.177Z,72.70
2022-12-04T00:08:45.247Z,72.60
2022-12-04T00:11:23.353Z,73.80
2022-12-04T00:14:04.811Z,70.80
2022-12-04T00:16:41.091Z,70.40
2022-12-04T00:19:16.220Z,71.60
2022-12-04T00:21:53.799Z,69.70
2022-12-04T00:24:28.723Z,68.70
2022-12-04T00:27:03.032Z,69.00
2022-12-04T00:29:37.631Z,71.20
2022-12-04T00:32:13.823Z,70.50
2022-12-04T00:34:47.380Z,69.70
2022-12-04T00:37:21.336Z,72.60
2022-12-04T00:39:57.346Z,71.10
2022-12-04T00:42:33.451Z,68.50
2022-12-04T00:45:09.767Z,68.00
2022-12-04T00:47:47.035Z,70.30
2022-12-04T00:50:22.675Z,72.20
2022-12-04T00:52:59.067Z,71.90
2022-12-04T00:55:35.053Z,73.80
2022-12-04T00:58:11.809Z,75.00
2022-12-04T01:00:46.607Z,74.70
2022-12-04T01:03:23.176Z,74.00
2022-12-04T01:05:59.079Z,67.30
2022-12-04T01:08:33.876Z,68.10
2022-12-04T01:11:17.716Z,68.70
2022-12-04T01:13:52.683Z,66.40
2022-12-04T01:16:30.452Z,68.70
2022-12-04T01:19:05.837Z,67.30
2022-12-04T01:21:40.769Z,64.90
2022-12-04T01:24:16.184Z,64.70
2022-12-04T01:26:52.075Z,67.90
2022-12-04T01:29:27.726Z,65.80
2022-12-04T01:32:02.850Z,65.00
2022-12-04T01:34:40.069Z,65.40
2022-12-04T01:37:15.612Z,67.00
2022-12-04T01:39:50.780Z,65.80
2022-12-04T01:42:26.862Z,66.70
2022-12-04T01:45:35.342Z,65.90
2022-12-04T01:48:16.288Z,62.90
2022-12-04T01:50:52.669Z,63.00
2022-12-04T01:53:27.262Z,60.90
2022-12-04T01:56:01.808Z,56.50
2022-12-04T01:58:35.856Z,52.20
2022-12-04T02:01:12.255Z,54.40
2022-12-04T02:03:46.858Z,52.30
2022-12-04T02:06:20.999Z,56.10
2022-12-04T02:08:53.892Z,54.80
2022-12-04T02:11:34.887Z,54.90
2022-12-04T02:14:18.101Z,57.80
2022-12-04T02:17:01.131Z,58.00
2022-12-04T02:20:05.301Z,58.50
2022-12-04T02:23:14.859Z,59.40
2022-12-04T02:25:55.144Z,60.00
2022-12-04T02:28:29.907Z,59.00
2022-12-04T02:31:03.771Z,58.00
2022-12-04T02:33:40.622Z,57.40
2022-12-04T02:36:17.669Z,55.20
2022-12-04T02:38:58.726Z,56.80
2022-12-04T02:41:36.609Z,56.60
2022-12-04T02:44:13.919Z,52.50
2022-12-04T02:46:52.084Z,53.00
2022-12-04T02:49:28.677Z,49.30
2022-12-04T02:52:02.614Z,50.30
2022-12-04T02:54:38.644Z,47.30
2022-12-04T02:57:16.736Z,49.00
2022-12-04T02:59:52.007Z,46.60
2022-12-04T03:02:29.954Z,46.60
2022-12-04T03:05:04.961Z,44.80
2022-12-04T03:07:39.183Z,42.70
2022-12-04T03:10:15.649Z,44.00
2022-12-04T03:12:52.068Z,44.60
2022-12-04T03:15:28.988Z,43.90
2022-12-04T03:18:05.067Z,43.40
2022-12-04T03:20:38.608Z,43.40
2022-12-04T03:23:17.994Z,44.20
2022-12-04T03:25:59.883Z,45.10
2022-12-04T03:28:38.479Z,43.70
2022-12-04T03:31:15.306Z,43.80
2022-12-04T03:33:51.225Z,41.30
2022-12-04T03:36:26.547Z,43.00
2022-12-04T03:39:01.735Z,44.40
2022-12-04T03:41:39.310Z,46.50
2022-12-04T03:44:18.520Z,43.20
2022-12-04T03:46:53.757Z,43.10
2022-12-04T03:49:30.603Z,42.50
2022-12-04T03:52:06.161Z,43.60
2022-12-04T03:54:42.032Z,43.40
2022-12-04T03:57:17.268Z,44.00
2022-12-04T03:59:55.941Z,44.60
2022-12-04T04:02:32.841Z,44.20
2022-12-04T04:05:07.046Z,43.20
2022-12-04T04:07:41.700Z,44.30
2022-12-04T04:10:18.395Z,45.50
2022-12-04T04:13:15.434Z,42.30
2022-12-04T04:16:11.827Z,43.50
2022-12-04T04:19:05.155Z,46.30
2022-12-04T04:22:01.401Z,45.00
2022-12-04T04:24:40.727Z,44.70
2022-12-04T04:27:13.000Z,45.90
2022-12-04T04:29:52.249Z,46.30
2022-12-04T04:32:32.095Z,46.80
2022-12-04T04:35:12.560Z,44.90
2022-12-04T04:37:52.462Z,45.40
2022-12-04T04:40:31.314Z,46.20
2022-12-04T04:43:10.659Z,43.30
2022-12-04T04:45:51.082Z,42.00
2022-12-04T04:48:27.143Z,44.40
2022-12-04T04:50:59.617Z,42.80
2022-12-04T04:53:36.852Z,43.60
2022-12-04T04:56:10.672Z,43.90
2022-12-04T04:58:43.344Z,42.00
2022-12-04T05:01:18.626Z,41.50
2022-12-04T05:03:51.641Z,41.70
2022-12-04T05:06:26.823Z,41.80
2022-12-04T05:08:59.667Z,38.90
2022-12-04T05:11:34.136Z,40.70
2022-12-04T05:14:09.748Z,41.00
2022-12-04T05:16:43.581Z,39.90
2022-12-04T05:19:34.214Z,40.70
2022-12-04T05:22:07.992Z,40.60
2022-12-04T05:24:40.826Z,38.50
2022-12-04T05:27:14.780Z,42.70
2022-12-04T05:29:46.787Z,40.10
2022-12-04T05:32:19.590Z,39.20
2022-12-04T05:34:53.711Z,37.40
2022-12-04T05:37:27.087Z,39.50
2022-12-04T05:40:00.813Z,38.60
2022-12-04T05:42:34.116Z,40.40
2022-12-04T05:45:08.187Z,39.90
2022-12-04T05:47:42.689Z,39.90
2022-12-04T05:50:18.464Z,40.30
2022-12-04T05:52:51.427Z,40.50
2022-12-04T05:55:25.404Z,40.30
2022-12-04T05:57:58.853Z,40.50
2022-12-04T06:00:31.177Z,39.30
2022-12-04T06:03:07.688Z,39.70
2022-12-04T06:05:40.790Z,39.80
2022-12-04T06:08:15.912Z,40.70
2022-12-04T06:10:49.529Z,41.20
2022-12-04T06:13:23.620Z,39.40
2022-12-04T06:15:56.576Z,38.70
2022-12-04T06:18:30.585Z,40.00
2022-12-04T06:21:02.564Z,39.70
2022-12-04T06:23:36.308Z,39.40
2022-12-04T06:26:12.456Z,40.00
2022-12-04T06:28:45.231Z,37.20
2022-12-04T06:31:22.031Z,38.20
2022-12-04T06:33:56.769Z,39.80
2022-12-04T06:36:29.102Z,38.10
2022-12-04T06:39:07.068Z,39.50
2022-12-04T06:41:40.283Z,38.00
2022-12-04T06:44:12.870Z,35.80
2022-12-04T06:46:47.354Z,38.40
2022-12-04T06:49:23.124Z,38.70
2022-12-04T06:51:55.865Z,36.70
2022-12-04T06:54:31.470Z,37.30
2022-12-04T06:57:05.149Z,35.70
2022-12-04T06:59:39.432Z,37.20
2022-12-04T07:02:15.633Z,37.30
2022-12-04T07:04:49.905Z,37.10
2022-12-04T07:07:23.549Z,37.70
2022-12-04T07:09:56.745Z,40.40
2022-12-04T07:12:29.220Z,46.50
2022-12-04T07:15:06.098Z,64.10
2022-12-04T07:17:38.702Z,48.30
2022-12-04T07:20:16.685Z,42.70
2022-12-04T07:22:49.821Z,41.20
2022-12-04T07:25:23.388Z,41.20
2022-12-04T07:27:58.186Z,38.40
2022-12-04T07:30:37.113Z,38.90
2022-12-04T07:33:19.107Z,36.10
2022-12-04T07:36:08.348Z,38.10
2022-12-04T07:38:43.223Z,41.40
2022-12-04T07:41:18.696Z,34.70
2022-12-04T07:43:54.602Z,35.00
2022-12-04T07:46:31.117Z,34.60
2022-12-04T07:49:05.810Z,35.80
2022-12-04T07:51:46.066Z,37.40
2022-12-04T07:54:22.120Z,35.50
2022-12-04T07:57:01.115Z,35.10
2022-12-04T07:59:40.929Z,35.40
2022-12-04T08:02:19.988Z,35.00
2022-12-04T08:04:58.195Z,34.70
2022-12-04T08:07:42.252Z,33.00
2022-12-04T08:10:19.853Z,32.90
2022-12-04T08:12:55.750Z,33.20
2022-12-04T08:15:31.546Z,33.50
2022-12-04T08:18:07.730Z,31.80
2022-12-04T08:20:42.017Z,30.50
2022-12-04T08:23:16.714Z,31.00
2022-12-04T08:25:50.857Z,30.00
2022-12-04T08:28:23.991Z,32.00
2022-12-04T08:31:09.111Z,32.90
2022-12-04T08:33:46.848Z,31.40
2022-12-04T08:36:24.322Z,32.40
2022-12-04T08:39:01.629Z,28.50
2022-12-04T08:41:36.815Z,29.70
2022-12-04T08:44:14.129Z,30.40
2022-12-04T08:46:51.874Z,28.30
2022-12-04T08:49:28.347Z,28.60
2022-12-04T08:52:01.556Z,28.00
2022-12-04T08:54:45.299Z,29.30
2022-12-04T08:57:18.543Z,29.80
2022-12-04T08:59:52.907Z,28.20
2022-12-04T09:02:27.299Z,27.70
2022-12-04T09:05:02.984Z,28.90
2022-12-04T09:07:36.196Z,28.90
2022-12-04T09:10:13.547Z,28.10
2022-12-04T09:12:48.158Z,29.90
2022-12-04T09:15:22.184Z,27.90
2022-12-04T09:17:56.422Z,27.40
2022-12-04T09:20:34.766Z,28.60
2022-12-04T09:23:08.967Z,26.10
2022-12-04T09:25:41.847Z,24.90
2022-12-04T09:28:15.234Z,26.00
2022-12-04T09:30:49.956Z,24.60
2022-12-04T09:33:24.025Z,24.50
2022-12-04T09:35:58.337Z,25.70
2022-12-04T09:38:32.419Z,28.40
2022-12-04T09:41:09.682Z,27.30
2022-12-04T09:43:51.344Z,25.80
2022-12-04T09:46:40.214Z,27.40
2022-12-04T09:49:19.211Z,24.70
2022-12-04T09:51:53.851Z,26.60
2022-12-04T09:54:33.808Z,24.20
2022-12-04T09:57:10.286Z,24.90
2022-12-04T09:59:44.642Z,25.80
2022-12-04T10:02:36.033Z,25.50
2022-12-04T10:05:20.505Z,22.90
2022-12-04T10:08:03.598Z,24.10
2022-12-04T10:10:41.629Z,24.00
2022-12-04T10:13:26.671Z,25.80
2022-12-04T10:16:06.390Z,26.10
2022-12-04T10:18:48.276Z,25.30
2022-12-04T10:21:38.360Z,28.00
2022-12-04T10:24:20.779Z,28.40
2022-12-04T10:26:57.633Z,28.70
2022-12-04T10:29:34.433Z,27.10
2022-12-04T10:32:20.571Z,28.60
2022-12-04T10:35:01.331Z,26.70
2022-12-04T10:37:39.054Z,26.80
2022-12-04T10:40:23.335Z,27.40
2022-12-04T10:43:02.156Z,27.30
2022-12-04T10:45:38.236Z,28.80
2022-12-04T10:48:20.419Z,30.20
2022-12-04T10:50:53.903Z,32.20
2022-12-04T10:53:35.203Z,30.20
2022-12-04T10:56:18.274Z,29.70
2022-12-04T10:59:04.467Z,32.70
2022-12-04T11:01:37.949Z,30.10
2022-12-04T11:04:20.926Z,33.80
2022-12-04T11:07:04.184Z,33.30
2022-12-04T11:09:40.071Z,36.60
2022-12-04T11:12:21.303Z,34.10
2022-12-04T11:15:21.213Z,41.70
2022-12-04T11:17:55.940Z,36.90
2022-12-04T11:20:32.677Z,30.80
2022-12-04T11:23:06.213Z,30.50
2022-12-04T11:25:46.635Z,32.10
2022-12-04T11:28:41.158Z,28.90
2022-12-04T11:31:30.439Z,27.30
2022-12-04T11:34:07.875Z,32.40
2022-12-04T11:36:46.250Z,26.80
2022-12-04T11:39:24.626Z,31.70
2022-12-04T11:42:07.860Z,26.60
2022-12-04T11:44:41.837Z,28.50
2022-12-04T11:47:20.846Z,32.00
2022-12-04T11:50:04.700Z,25.50
2022-12-04T11:52:49.455Z,27.30
2022-12-04T11:55:29.376Z,31.20
2022-12-04T11:58:20.660Z,29.90
2022-12-04T12:01:06.768Z,29.30
2022-12-04T12:03:45.524Z,25.60
2022-12-04T12:06:26.865Z,25.20
2022-12-04T12:09:18.558Z,26.70
2022-12-04T12:11:57.787Z,25.10
2022-12-04T12:14:36.516Z,26.60
2022-12-04T12:17:16.686Z,25.40
2022-12-04T12:20:19.312Z,27.30
2022-12-04T12:23:20.126Z,26.20
2022-12-04T12:26:03.668Z,26.10
2022-12-04T12:28:47.143Z,25.00
2022-12-04T12:31:38.552Z,25.20
2022-12-04T12:34:16.613Z,26.50
2022-12-04T12:36:55.310Z,27.00
2022-12-04T12:39:37.634Z,30.10
2022-12-04T12:42:20.400Z,27.70
2022-12-04T12:44:59.633Z,27.10
2022-12-04T12:47:41.556Z,26.30
2022-12-04T12:50:18.985Z,27.90
2022-12-04T12:52:59.375Z,27.20
2022-12-04T12:55:34.807Z,27.70
2022-12-04T12:58:13.801Z,28.90
2022-12-04T13:00:48.669Z,29.00
2022-12-04T13:03:27.761Z,28.60
2022-12-04T13:06:05.832Z,31.00
2022-12-04T13:08:46.375Z,32.00
2022-12-04T13:11:26.203Z,31.80
2022-12-04T13:14:02.449Z,32.40
2022-12-04T13:16:40.327Z,31.10
2022-12-04T13:19:21.776Z,33.00
2022-12-04T13:22:02.679Z,32.60
2022-12-04T13:24:54.815Z,35.80
2022-12-04T13:27:39.259Z,33.60
2022-12-04T13:30:19.280Z,33.00
2022-12-04T13:33:10.338Z,38.40
2022-12-04T13:36:05.872Z,37.30
2022-12-04T13:38:45.325Z,33.70
2022-12-04T13:41:21.476Z,35.90
2022-12-04T13:43:55.050Z,33.50
2022-12-04T13:46:31.442Z,34.20
2022-12-04T13:49:28.723Z,34.00
2022-12-04T13:52:08.219Z,35.50
2022-12-04T13:54:42.412Z,36.20
2022-12-04T13:57:21.407Z,39.20
2022-12-04T14:00:06.667Z,43.80
2022-12-04T14:02:39.546Z,44.90
2022-12-04T14:05:14.614Z,40.90
2022-12-04T14:08:06.927Z,42.40
2022-12-04T14:10:41.632Z,41.00
2022-12-04T14:13:21.859Z,41.50
2022-12-04T14:16:07.277Z,43.90
2022-12-04T14:18:40.359Z,46.80
2022-12-04T14:21:13.069Z,48.00
2022-12-04T14:23:46.940Z,45.80
2022-12-04T14:29:37.502Z,43.10
2022-12-04T14:32:20.704Z,40.50
2022-12-04T14:34:57.372Z,45.30
2022-12-04T14:37:32.215Z,45.40
2022-12-04T14:40:08.518Z,47.40
2022-12-04T14:42:41.486Z,47.40
2022-12-04T14:45:28.773Z,48.30
2022-12-04T14:48:17.702Z,47.20
2022-12-04T14:50:58.841Z,47.30
2022-12-04T14:53:44.606Z,44.20
2022-12-04T14:56:30.410Z,48.90
2022-12-04T14:59:08.128Z,47.90
2022-12-04T15:01:41.326Z,52.00
2022-12-04T15:04:18.542Z,49.50
2022-12-04T15:06:58.328Z,49.90
2022-12-04T15:09:51.847Z,52.50
2022-12-04T15:12:37.774Z,50.10
2022-12-04T15:15:23.383Z,51.70
2022-12-04T15:18:05.434Z,52.40
2022-12-04T15:20:44.425Z,52.40
2022-12-04T15:23:18.072Z,52.50
2022-12-04T15:25:56.434Z,52.60
2022-12-04T15:28:33.433Z,51.70
2022-12-04T15:31:12.267Z,49.70
2022-12-04T15:33:45.113Z,52.60
2022-12-04T15:36:21.952Z,55.40
2022-12-04T15:38:54.866Z,53.30
2022-12-04T15:41:35.463Z,55.60
2022-12-04T15:44:25.423Z,54.10
2022-12-04T15:47:04.196Z,54.50
2022-12-04T15:49:39.009Z,53.20
2022-12-04T15:52:17.755Z,54.60
2022-12-04T15:54:56.761Z,53.40
2022-12-04T15:57:32.289Z,55.90
2022-12-04T16:00:06.188Z,57.50
2022-12-04T16:10:04.144Z,50.10
2022-12-04T16:12:36.841Z,55.20
2022-12-04T16:15:10.773Z,51.50
2022-12-04T16:17:42.832Z,53.10
2022-12-04T16:20:16.071Z,51.30
2022-12-04T16:22:49.005Z,50.60
2022-12-04T16:25:21.210Z,49.40
2022-12-04T16:27:57.776Z,50.40
2022-12-04T16:30:32.008Z,50.40
2022-12-04T16:33:05.325Z,51.40
2022-12-04T16:35:37.550Z,48.70
2022-12-04T16:38:17.122Z,49.90
2022-12-04T16:40:50.681Z,49.40
2022-12-04T16:43:23.018Z,50.60
2022-12-04T16:45:56.930Z,50.30
2022-12-04T16:48:33.652Z,49.70
2022-12-04T16:51:06.865Z,49.10
2022-12-04T16:53:39.160Z,50.70
2022-12-04T16:56:12.484Z,49.80
2022-12-04T16:58:45.917Z,47.00
2022-12-04T17:01:26.278Z,47.70
2022-12-04T17:03:59.282Z,45.50
2022-12-04T17:06:35.017Z,46.50
2022-12-04T17:09:08.059Z,46.10
2022-12-04T17:11:42.846Z,46.40
2022-12-04T17:14:16.441Z,46.90
2022-12-04T17:16:49.718Z,47.10
2022-12-04T17:19:24.833Z,45.20
2022-12-04T17:21:58.898Z,45.50
2022-12-04T17:24:31.044Z,45.90
2022-12-04T17:27:06.335Z,48.40
2022-12-04T17:29:39.149Z,46.60
2022-12-04T17:32:11.753Z,48.10
2022-12-04T17:34:47.867Z,48.50
2022-12-04T17:38:05.400Z,45.90
2022-12-04T17:41:05.109Z,42.00
2022-12-04T17:43:38.085Z,42.60
2022-12-04T17:46:15.078Z,45.40
2022-12-04T17:48:50.393Z,45.50
2022-12-04T17:51:25.791Z,44.40
2022-12-04T17:54:01.054Z,45.40
2022-12-04T17:56:35.902Z,48.30
2022-12-04T17:59:09.380Z,45.80
2022-12-04T18:01:41.306Z,45.50
2022-12-04T18:04:15.878Z,53.80
2022-12-04T18:06:50.803Z,46.00
2022-12-04T18:09:23.002Z,39.30
2022-12-04T18:11:58.853Z,40.30
2022-12-04T18:14:33.315Z,40.20
2022-12-04T18:17:08.464Z,37.60
2022-12-04T18:19:43.283Z,38.10
2022-12-04T18:22:16.345Z,36.90
2022-12-04T18:24:50.558Z,38.80
2022-12-04T18:27:24.347Z,38.80
2022-12-04T18:29:57.418Z,38.40
2022-12-04T18:32:30.797Z,42.40
2022-12-04T18:35:05.405Z,41.30
2022-12-04T18:37:40.788Z,41.80
2022-12-04T18:40:15.846Z,40.80
2022-12-04T18:42:48.110Z,39.60
2022-12-04T18:45:22.361Z,39.80
2022-12-04T18:47:55.785Z,38.70
2022-12-04T18:50:29.539Z,38.50
2022-12-04T18:53:05.540Z,40.10
2022-12-04T18:55:42.525Z,39.50
2022-12-04T18:58:15.860Z,42.50
2022-12-04T19:00:50.198Z,40.50
2022-12-04T19:03:23.387Z,41.50
2022-12-04T19:05:56.392Z,40.30
2022-12-04T19:08:33.278Z,45.50
2022-12-04T19:11:15.839Z,43.80
2022-12-04T19:13:49.120Z,42.50
2022-12-04T19:16:23.409Z,42.20
2022-12-04T19:18:57.572Z,45.00
2022-12-04T19:21:33.370Z,49.80
2022-12-04T19:24:09.469Z,42.90
2022-12-04T19:26:42.825Z,45.00
2022-12-04T19:29:19.506Z,44.40
2022-12-04T19:31:58.790Z,46.20
2022-12-04T19:34:33.158Z,45.20
2022-12-04T19:37:06.212Z,43.10
2022-12-04T19:39:40.292Z,43.30
2022-12-04T19:42:14.386Z,46.80
2022-12-04T19:44:49.390Z,42.80
2022-12-04T19:47:22.810Z,40.20
2022-12-04T19:49:56.103Z,43.40
2022-12-04T19:52:29.635Z,43.60
2022-12-04T19:55:04.332Z,43.00
2022-12-04T19:57:37.568Z,40.20
2022-12-04T20:00:13.332Z,37.60
2022-12-04T20:02:45.955Z,39.70
2022-12-04T20:05:20.067Z,40.80
2022-12-04T20:07:54.174Z,39.50
2022-12-04T20:10:34.095Z,42.40
2022-12-04T20:13:08.900Z,41.00
2022-12-04T20:15:41.191Z,38.80
2022-12-04T20:18:15.337Z,39.90
2022-12-04T20:20:48.127Z,40.20
2022-12-04T20:23:22.521Z,40.10
2022-12-04T20:26:04.312Z,38.80
2022-12-04T20:28:38.734Z,40.50
2022-12-04T20:31:17.003Z,39.00
2022-12-04T20:33:50.844Z,40.80
2022-12-04T20:36:25.165Z,40.40
2022-12-04T20:39:00.701Z,40.20
2022-12-04T20:41:39.193Z,42.60
2022-12-04T20:44:21.028Z,39.30
2022-12-04T20:46:54.018Z,41.90
2022-12-04T20:49:28.425Z,41.70
2022-12-04T20:52:01.915Z,42.10
2022-12-04T20:54:41.385Z,42.80
2022-12-04T20:57:16.645Z,40.00
2022-12-04T20:59:49.767Z,36.20
2022-12-04T21:02:25.158Z,37.70
2022-12-04T21:05:00.869Z,36.20
2022-12-04T21:07:35.698Z,35.90
2022-12-04T21:10:12.153Z,38.80
2022-12-04T21:13:04.911Z,35.30
2022-12-04T21:15:58.412Z,37.00
2022-12-04T21:18:33.391Z,38.30
2022-12-04T21:21:06.801Z,37.20
2022-12-04T21:23:39.209Z,35.20
2022-12-04T21:26:13.660Z,35.40
2022-12-04T21:28:48.972Z,33.40
2022-12-04T21:31:23.438Z,31.40
2022-12-04T21:33:58.954Z,32.40
2022-12-04T21:36:32.279Z,33.30
2022-12-04T21:39:06.213Z,33.30
2022-12-04T21:41:58.744Z,33.70
2022-12-04T21:44:32.808Z,35.30
2022-12-04T21:47:05.637Z,36.50
2022-12-04T21:49:38.328Z,35.80
2022-12-04T21:52:11.402Z,35.00
2022-12-04T21:54:46.745Z,38.60
2022-12-04T21:57:19.972Z,36.10
2022-12-04T21:59:54.905Z,34.70
2022-12-04T22:02:27.984Z,34.00
2022-12-04T22:05:03.332Z,34.20
2022-12-04T22:07:37.093Z,34.80
2022-12-04T22:10:12.703Z,34.70
2022-12-04T22:12:49.984Z,33.80
2022-12-04T22:15:23.294Z,36.00
2022-12-04T22:17:56.925Z,33.30
2022-12-04T22:20:29.460Z,34.60
2022-12-04T22:23:04.413Z,35.20
2022-12-04T22:25:38.177Z,34.80
2022-12-04T22:28:10.346Z,34.90
2022-12-04T22:30:43.696Z,36.10
2022-12-04T22:33:16.943Z,36.10
2022-12-04T22:35:50.802Z,34.60
2022-12-04T22:38:23.320Z,35.00
2022-12-04T22:40:59.062Z,35.00
2022-12-04T22:43:36.398Z,40.40
2022-12-04T22:46:14.471Z,40.40
2022-12-04T22:48:47.122Z,40.90
2022-12-04T22:51:22.005Z,40.30
2022-12-04T22:53:57.166Z,42.30
2022-12-04T22:56:31.497Z,41.90
2022-12-04T22:59:05.250Z,40.60
2022-12-04T23:01:38.281Z,42.60
2022-12-04T23:04:13.503Z,44.30
2022-12-04T23:06:49.308Z,43.80
2022-12-04T23:09:21.244Z,40.80
2022-12-04T23:11:55.759Z,43.70
2022-12-04T23:14:30.192Z,42.80
2022-12-04T23:17:08.954Z,42.80
2022-12-04T23:19:42.027Z,42.90
2022-12-04T23:22:15.448Z,40.70
2022-12-04T23:24:48.093Z,42.10
2022-12-04T23:27:21.936Z,40.80
2022-12-04T23:29:56.251Z,39.90
2022-12-04T23:32:29.950Z,37.80
2022-12-04T23:35:04.677Z,39.00
2022-12-04T23:37:38.880Z,36.80
2022-12-04T23:40:13.856Z,37.50
2022-12-04T23:42:47.377Z,36.20
2022-12-04T23:45:20.743Z,35.80
2022-12-04T23:47:54.116Z,35.30
2022-12-04T23:50:26.281Z,34.00
2022-12-04T23:53:01.931Z,33.00
2022-12-04T23:55:34.922Z,34.70
2022-12-04T23:58:07.740Z,35.00
